sensor_id;sensor_type;location;lat;lon;timestamp;P1;durP1;ratioP1;P2;durP2;ratioP2
11135;SDS011;5622;50.840;4.948;2023-04-07T00:00:37;12.40;;;8.77;;
11135;SDS011;5622;50.840;4.948;2023-04-07T00:03:05;17.63;;;9.90;;
11135;SDS011;5622;50.840;4.948;2023-04-07T00:05:32;15.53;;;9.30;;
11135;SDS011;5622;50.840;4.948;2023-04-07T00:08:01;17.77;;;9.63;;
11135;SDS011;5622;50.840;4.948;2023-04-07T00:10:28;16.53;;;9.27;;
11135;SDS011;5622;50.840;4.948;2023-04-07T00:12:55;14.50;;;9.13;;
11135;SDS011;5622;50.840;4.948;2023-04-07T00:15:22;18.67;;;9.60;;
11135;SDS011;5622;50.840;4.948;2023-04-07T00:17:50;17.97;;;9.40;;
11135;SDS011;5622;50.840;4.948;2023-04-07T00:20:18;14.43;;;8.23;;
11135;SDS011;5622;50.840;4.948;2023-04-07T00:22:45;15.87;;;9.47;;
11135;SDS011;5622;50.840;4.948;2023-04-07T00:25:13;13.73;;;8.30;;
11135;SDS011;5622;50.840;4.948;2023-04-07T00:27:40;12.90;;;8.33;;
11135;SDS011;5622;50.840;4.948;2023-04-07T00:30:08;14.87;;;8.13;;
11135;SDS011;5622;50.840;4.948;2023-04-07T00:32:35;13.30;;;7.80;;
11135;SDS011;5622;50.840;4.948;2023-04-07T00:35:02;20.23;;;9.17;;
11135;SDS011;5622;50.840;4.948;2023-04-07T00:37:29;22.60;;;9.20;;
11135;SDS011;5622;50.840;4.948;2023-04-07T00:39:56;15.23;;;8.87;;
11135;SDS011;5622;50.840;4.948;2023-04-07T00:42:25;18.47;;;8.87;;
11135;SDS011;5622;50.840;4.948;2023-04-07T00:44:52;17.00;;;8.60;;
11135;SDS011;5622;50.840;4.948;2023-04-07T00:47:19;19.43;;;8.93;;
11135;SDS011;5622;50.840;4.948;2023-04-07T00:49:46;13.60;;;8.60;;
11135;SDS011;5622;50.840;4.948;2023-04-07T00:52:13;11.57;;;7.93;;
11135;SDS011;5622;50.840;4.948;2023-04-07T00:54:41;12.30;;;8.17;;
11135;SDS011;5622;50.840;4.948;2023-04-07T00:57:10;12.10;;;7.73;;
11135;SDS011;5622;50.840;4.948;2023-04-07T00:59:39;13.77;;;8.23;;
11135;SDS011;5622;50.840;4.948;2023-04-07T01:02:07;14.00;;;7.77;;
11135;SDS011;5622;50.840;4.948;2023-04-07T01:04:42;14.67;;;8.27;;
11135;SDS011;5622;50.840;4.948;2023-04-07T01:07:14;13.13;;;7.67;;
11135;SDS011;5622;50.840;4.948;2023-04-07T01:09:45;19.30;;;8.50;;
11135;SDS011;5622;50.840;4.948;2023-04-07T01:12:15;12.77;;;7.30;;
11135;SDS011;5622;50.840;4.948;2023-04-07T01:14:53;10.57;;;7.20;;
11135;SDS011;5622;50.840;4.948;2023-04-07T01:17:32;12.43;;;7.90;;
11135;SDS011;5622;50.840;4.948;2023-04-07T01:20:02;10.30;;;7.47;;
11135;SDS011;5622;50.840;4.948;2023-04-07T01:22:32;11.50;;;7.60;;
11135;SDS011;5622;50.840;4.948;2023-04-07T01:25:11;12.47;;;7.70;;
11135;SDS011;5622;50.840;4.948;2023-04-07T01:27:53;14.87;;;8.80;;
11135;SDS011;5622;50.840;4.948;2023-04-07T01:30:29;13.23;;;8.03;;
11135;SDS011;5622;50.840;4.948;2023-04-07T01:32:59;13.73;;;8.53;;
11135;SDS011;5622;50.840;4.948;2023-04-07T01:35:28;13.10;;;8.43;;
11135;SDS011;5622;50.840;4.948;2023-04-07T01:37:58;10.80;;;7.73;;
11135;SDS011;5622;50.840;4.948;2023-04-07T01:40:26;12.93;;;8.17;;
11135;SDS011;5622;50.840;4.948;2023-04-07T01:42:55;13.83;;;8.30;;
11135;SDS011;5622;50.840;4.948;2023-04-07T01:45:23;14.60;;;8.50;;
11135;SDS011;5622;50.840;4.948;2023-04-07T01:47:54;13.40;;;9.40;;
11135;SDS011;5622;50.840;4.948;2023-04-07T01:50:22;16.80;;;9.30;;
11135;SDS011;5622;50.840;4.948;2023-04-07T01:52:51;16.43;;;10.60;;
11135;SDS011;5622;50.840;4.948;2023-04-07T01:55:19;16.67;;;9.80;;
11135;SDS011;5622;50.840;4.948;2023-04-07T01:57:47;16.37;;;10.23;;
11135;SDS011;5622;50.840;4.948;2023-04-07T02:00:14;15.17;;;10.43;;
11135;SDS011;5622;50.840;4.948;2023-04-07T02:02:43;18.93;;;10.33;;
11135;SDS011;5622;50.840;4.948;2023-04-07T02:05:13;19.13;;;11.60;;
11135;SDS011;5622;50.840;4.948;2023-04-07T02:07:45;14.50;;;10.50;;
11135;SDS011;5622;50.840;4.948;2023-04-07T02:10:19;19.77;;;11.03;;
11135;SDS011;5622;50.840;4.948;2023-04-07T02:12:49;18.20;;;11.00;;
11135;SDS011;5622;50.840;4.948;2023-04-07T02:15:17;19.87;;;12.00;;
11135;SDS011;5622;50.840;4.948;2023-04-07T02:17:46;20.07;;;11.93;;
11135;SDS011;5622;50.840;4.948;2023-04-07T02:20:18;20.83;;;12.47;;
11135;SDS011;5622;50.840;4.948;2023-04-07T02:22:47;19.73;;;11.13;;
11135;SDS011;5622;50.840;4.948;2023-04-07T02:25:21;23.83;;;13.57;;
11135;SDS011;5622;50.840;4.948;2023-04-07T02:27:49;27.10;;;14.13;;
11135;SDS011;5622;50.840;4.948;2023-04-07T02:30:17;23.30;;;13.33;;
11135;SDS011;5622;50.840;4.948;2023-04-07T02:32:44;19.90;;;12.37;;
11135;SDS011;5622;50.840;4.948;2023-04-07T02:35:11;25.97;;;14.40;;
11135;SDS011;5622;50.840;4.948;2023-04-07T02:37:40;30.93;;;16.13;;
11135;SDS011;5622;50.840;4.948;2023-04-07T02:40:07;25.10;;;14.67;;
11135;SDS011;5622;50.840;4.948;2023-04-07T02:42:35;30.43;;;16.33;;
11135;SDS011;5622;50.840;4.948;2023-04-07T02:45:02;34.33;;;16.63;;
11135;SDS011;5622;50.840;4.948;2023-04-07T02:47:30;30.87;;;16.60;;
11135;SDS011;5622;50.840;4.948;2023-04-07T02:49:58;32.83;;;18.67;;
11135;SDS011;5622;50.840;4.948;2023-04-07T02:52:25;37.13;;;17.37;;
11135;SDS011;5622;50.840;4.948;2023-04-07T02:54:54;32.37;;;18.27;;
11135;SDS011;5622;50.840;4.948;2023-04-07T02:57:21;37.27;;;19.17;;
11135;SDS011;5622;50.840;4.948;2023-04-07T02:59:48;37.37;;;19.33;;
11135;SDS011;5622;50.840;4.948;2023-04-07T03:02:15;40.97;;;19.10;;
11135;SDS011;5622;50.840;4.948;2023-04-07T03:04:42;30.03;;;17.60;;
11135;SDS011;5622;50.840;4.948;2023-04-07T03:07:10;32.73;;;18.87;;
11135;SDS011;5622;50.840;4.948;2023-04-07T03:09:37;31.10;;;16.90;;
11135;SDS011;5622;50.840;4.948;2023-04-07T03:12:05;35.40;;;19.10;;
11135;SDS011;5622;50.840;4.948;2023-04-07T03:14:32;33.23;;;19.10;;
11135;SDS011;5622;50.840;4.948;2023-04-07T03:17:00;29.67;;;18.37;;
11135;SDS011;5622;50.840;4.948;2023-04-07T03:19:27;36.67;;;19.60;;
11135;SDS011;5622;50.840;4.948;2023-04-07T03:21:54;28.37;;;17.43;;
11135;SDS011;5622;50.840;4.948;2023-04-07T03:24:21;28.67;;;17.10;;
11135;SDS011;5622;50.840;4.948;2023-04-07T03:26:48;27.73;;;17.47;;
11135;SDS011;5622;50.840;4.948;2023-04-07T03:29:18;38.33;;;18.93;;
11135;SDS011;5622;50.840;4.948;2023-04-07T03:31:45;30.03;;;18.10;;
11135;SDS011;5622;50.840;4.948;2023-04-07T03:34:12;29.73;;;18.00;;
11135;SDS011;5622;50.840;4.948;2023-04-07T03:36:39;30.20;;;16.67;;
11135;SDS011;5622;50.840;4.948;2023-04-07T03:39:06;28.43;;;17.63;;
11135;SDS011;5622;50.840;4.948;2023-04-07T03:41:33;27.20;;;16.97;;
11135;SDS011;5622;50.840;4.948;2023-04-07T03:44:00;32.37;;;17.27;;
11135;SDS011;5622;50.840;4.948;2023-04-07T03:46:29;26.63;;;16.90;;
11135;SDS011;5622;50.840;4.948;2023-04-07T03:48:56;24.83;;;15.33;;
11135;SDS011;5622;50.840;4.948;2023-04-07T03:51:23;30.70;;;17.30;;
11135;SDS011;5622;50.840;4.948;2023-04-07T03:53:51;30.40;;;18.33;;
11135;SDS011;5622;50.840;4.948;2023-04-07T03:56:19;27.80;;;16.40;;
11135;SDS011;5622;50.840;4.948;2023-04-07T03:58:46;35.77;;;19.03;;
11135;SDS011;5622;50.840;4.948;2023-04-07T04:01:14;35.27;;;18.77;;
11135;SDS011;5622;50.840;4.948;2023-04-07T04:03:42;31.50;;;18.47;;
11135;SDS011;5622;50.840;4.948;2023-04-07T04:06:10;36.47;;;18.63;;
11135;SDS011;5622;50.840;4.948;2023-04-07T04:08:37;32.07;;;19.57;;
11135;SDS011;5622;50.840;4.948;2023-04-07T04:11:04;30.97;;;17.43;;
11135;SDS011;5622;50.840;4.948;2023-04-07T04:13:31;33.43;;;18.87;;
11135;SDS011;5622;50.840;4.948;2023-04-07T04:15:58;28.63;;;17.53;;
11135;SDS011;5622;50.840;4.948;2023-04-07T04:18:25;30.27;;;17.67;;
11135;SDS011;5622;50.840;4.948;2023-04-07T04:20:53;32.73;;;18.20;;
11135;SDS011;5622;50.840;4.948;2023-04-07T04:23:20;31.53;;;17.87;;
11135;SDS011;5622;50.840;4.948;2023-04-07T04:25:48;35.33;;;19.40;;
11135;SDS011;5622;50.840;4.948;2023-04-07T04:28:15;31.00;;;19.67;;
11135;SDS011;5622;50.840;4.948;2023-04-07T04:30:42;31.23;;;19.93;;
11135;SDS011;5622;50.840;4.948;2023-04-07T04:33:09;33.67;;;18.93;;
11135;SDS011;5622;50.840;4.948;2023-04-07T04:35:37;31.53;;;20.00;;
11135;SDS011;5622;50.840;4.948;2023-04-07T04:38:05;34.03;;;19.53;;
11135;SDS011;5622;50.840;4.948;2023-04-07T04:40:32;36.10;;;22.47;;
11135;SDS011;5622;50.840;4.948;2023-04-07T04:42:59;41.83;;;23.07;;
11135;SDS011;5622;50.840;4.948;2023-04-07T04:45:30;42.00;;;23.67;;
11135;SDS011;5622;50.840;4.948;2023-04-07T04:47:58;36.53;;;21.67;;
11135;SDS011;5622;50.840;4.948;2023-04-07T04:50:25;42.47;;;23.53;;
11135;SDS011;5622;50.840;4.948;2023-04-07T04:52:52;40.50;;;21.77;;
11135;SDS011;5622;50.840;4.948;2023-04-07T04:55:21;45.17;;;25.43;;
11135;SDS011;5622;50.840;4.948;2023-04-07T04:57:48;40.40;;;24.53;;
11135;SDS011;5622;50.840;4.948;2023-04-07T05:00:15;39.67;;;23.63;;
11135;SDS011;5622;50.840;4.948;2023-04-07T05:02:43;44.60;;;24.20;;
11135;SDS011;5622;50.840;4.948;2023-04-07T05:05:10;50.00;;;25.10;;
11135;SDS011;5622;50.840;4.948;2023-04-07T05:07:38;47.90;;;25.83;;
11135;SDS011;5622;50.840;4.948;2023-04-07T05:10:06;40.57;;;24.10;;
11135;SDS011;5622;50.840;4.948;2023-04-07T05:12:35;44.67;;;24.73;;
11135;SDS011;5622;50.840;4.948;2023-04-07T05:15:03;37.23;;;21.63;;
11135;SDS011;5622;50.840;4.948;2023-04-07T05:17:31;51.23;;;25.23;;
11135;SDS011;5622;50.840;4.948;2023-04-07T05:19:58;40.93;;;23.90;;
11135;SDS011;5622;50.840;4.948;2023-04-07T05:22:25;44.10;;;25.27;;
11135;SDS011;5622;50.840;4.948;2023-04-07T05:24:52;40.47;;;23.83;;
11135;SDS011;5622;50.840;4.948;2023-04-07T05:27:19;41.43;;;23.63;;
11135;SDS011;5622;50.840;4.948;2023-04-07T05:29:48;41.33;;;23.83;;
11135;SDS011;5622;50.840;4.948;2023-04-07T05:32:15;43.73;;;24.93;;
11135;SDS011;5622;50.840;4.948;2023-04-07T05:34:42;43.83;;;24.77;;
11135;SDS011;5622;50.840;4.948;2023-04-07T05:37:09;49.33;;;26.53;;
11135;SDS011;5622;50.840;4.948;2023-04-07T05:39:36;45.67;;;25.77;;
11135;SDS011;5622;50.840;4.948;2023-04-07T05:42:03;46.73;;;25.67;;
11135;SDS011;5622;50.840;4.948;2023-04-07T05:44:30;49.23;;;26.50;;
11135;SDS011;5622;50.840;4.948;2023-04-07T05:46:59;42.70;;;24.27;;
11135;SDS011;5622;50.840;4.948;2023-04-07T05:49:29;49.20;;;25.30;;
11135;SDS011;5622;50.840;4.948;2023-04-07T05:51:57;52.07;;;27.40;;
11135;SDS011;5622;50.840;4.948;2023-04-07T05:54:24;42.93;;;24.87;;
11135;SDS011;5622;50.840;4.948;2023-04-07T05:56:51;45.20;;;26.47;;
11135;SDS011;5622;50.840;4.948;2023-04-07T05:59:18;45.80;;;26.57;;
11135;SDS011;5622;50.840;4.948;2023-04-07T06:01:45;47.43;;;27.10;;
11135;SDS011;5622;50.840;4.948;2023-04-07T06:04:14;43.63;;;26.03;;
11135;SDS011;5622;50.840;4.948;2023-04-07T06:06:41;41.47;;;24.70;;
11135;SDS011;5622;50.840;4.948;2023-04-07T06:09:08;46.50;;;25.90;;
11135;SDS011;5622;50.840;4.948;2023-04-07T06:11:35;51.70;;;25.33;;
11135;SDS011;5622;50.840;4.948;2023-04-07T06:14:02;39.70;;;23.20;;
11135;SDS011;5622;50.840;4.948;2023-04-07T06:16:29;45.47;;;26.00;;
11135;SDS011;5622;50.840;4.948;2023-04-07T06:18:56;42.60;;;23.90;;
11135;SDS011;5622;50.840;4.948;2023-04-07T06:21:25;46.57;;;25.50;;
11135;SDS011;5622;50.840;4.948;2023-04-07T06:23:52;46.67;;;25.57;;
11135;SDS011;5622;50.840;4.948;2023-04-07T06:26:19;44.03;;;25.07;;
11135;SDS011;5622;50.840;4.948;2023-04-07T06:28:47;51.60;;;26.03;;
11135;SDS011;5622;50.840;4.948;2023-04-07T06:31:14;51.97;;;26.63;;
11135;SDS011;5622;50.840;4.948;2023-04-07T06:33:42;50.53;;;26.60;;
11135;SDS011;5622;50.840;4.948;2023-04-07T06:36:10;47.80;;;25.83;;
11135;SDS011;5622;50.840;4.948;2023-04-07T06:38:38;61.70;;;27.87;;
11135;SDS011;5622;50.840;4.948;2023-04-07T06:41:05;43.03;;;24.07;;
11135;SDS011;5622;50.840;4.948;2023-04-07T06:43:35;48.83;;;24.90;;
11135;SDS011;5622;50.840;4.948;2023-04-07T06:46:03;45.63;;;25.03;;
11135;SDS011;5622;50.840;4.948;2023-04-07T06:48:30;47.17;;;25.10;;
11135;SDS011;5622;50.840;4.948;2023-04-07T06:50:57;44.43;;;25.13;;
11135;SDS011;5622;50.840;4.948;2023-04-07T06:53:24;48.40;;;25.63;;
11135;SDS011;5622;50.840;4.948;2023-04-07T06:56:02;46.73;;;25.43;;
11135;SDS011;5622;50.840;4.948;2023-04-07T06:58:30;40.60;;;25.10;;
11135;SDS011;5622;50.840;4.948;2023-04-07T07:00:57;51.90;;;26.47;;
11135;SDS011;5622;50.840;4.948;2023-04-07T07:03:25;49.43;;;24.70;;
11135;SDS011;5622;50.840;4.948;2023-04-07T07:05:53;52.23;;;28.60;;
11135;SDS011;5622;50.840;4.948;2023-04-07T07:08:21;48.00;;;25.67;;
11135;SDS011;5622;50.840;4.948;2023-04-07T07:10:49;44.60;;;24.33;;
11135;SDS011;5622;50.840;4.948;2023-04-07T07:13:18;50.70;;;26.03;;
11135;SDS011;5622;50.840;4.948;2023-04-07T07:15:47;47.53;;;24.20;;
11135;SDS011;5622;50.840;4.948;2023-04-07T07:18:14;42.43;;;23.40;;
11135;SDS011;5622;50.840;4.948;2023-04-07T07:20:42;31.83;;;18.77;;
11135;SDS011;5622;50.840;4.948;2023-04-07T07:23:09;31.00;;;16.90;;
11135;SDS011;5622;50.840;4.948;2023-04-07T07:25:36;26.53;;;16.13;;
11135;SDS011;5622;50.840;4.948;2023-04-07T07:28:03;23.60;;;15.87;;
11135;SDS011;5622;50.840;4.948;2023-04-07T07:30:31;29.77;;;15.57;;
11135;SDS011;5622;50.840;4.948;2023-04-07T07:32:59;26.43;;;15.40;;
11135;SDS011;5622;50.840;4.948;2023-04-07T07:35:26;28.37;;;15.37;;
11135;SDS011;5622;50.840;4.948;2023-04-07T07:37:53;21.80;;;14.20;;
11135;SDS011;5622;50.840;4.948;2023-04-07T07:40:20;22.97;;;14.90;;
11135;SDS011;5622;50.840;4.948;2023-04-07T07:42:47;21.80;;;13.83;;
11135;SDS011;5622;50.840;4.948;2023-04-07T07:45:14;22.07;;;14.00;;
11135;SDS011;5622;50.840;4.948;2023-04-07T07:47:45;22.17;;;13.97;;
11135;SDS011;5622;50.840;4.948;2023-04-07T07:50:12;20.70;;;13.00;;
11135;SDS011;5622;50.840;4.948;2023-04-07T07:52:39;15.87;;;11.90;;
11135;SDS011;5622;50.840;4.948;2023-04-07T07:55:07;18.33;;;13.33;;
11135;SDS011;5622;50.840;4.948;2023-04-07T07:57:34;25.20;;;18.77;;
11135;SDS011;5622;50.840;4.948;2023-04-07T08:00:02;24.93;;;22.27;;
11135;SDS011;5622;50.840;4.948;2023-04-07T08:02:29;25.47;;;16.87;;
11135;SDS011;5622;50.840;4.948;2023-04-07T08:04:59;24.87;;;21.63;;
11135;SDS011;5622;50.840;4.948;2023-04-07T08:07:26;19.03;;;16.67;;
11135;SDS011;5622;50.840;4.948;2023-04-07T08:09:53;15.17;;;11.33;;
11135;SDS011;5622;50.840;4.948;2023-04-07T08:12:20;21.10;;;13.57;;
11135;SDS011;5622;50.840;4.948;2023-04-07T08:14:47;17.53;;;11.20;;
11135;SDS011;5622;50.840;4.948;2023-04-07T08:17:15;23.30;;;15.10;;
11135;SDS011;5622;50.840;4.948;2023-04-07T08:19:42;22.17;;;15.13;;
11135;SDS011;5622;50.840;4.948;2023-04-07T08:22:11;22.43;;;13.10;;
11135;SDS011;5622;50.840;4.948;2023-04-07T08:24:38;18.13;;;10.53;;
11135;SDS011;5622;50.840;4.948;2023-04-07T08:27:05;21.33;;;11.47;;
11135;SDS011;5622;50.840;4.948;2023-04-07T08:29:32;19.30;;;11.83;;
11135;SDS011;5622;50.840;4.948;2023-04-07T08:32:00;16.50;;;12.13;;
11135;SDS011;5622;50.840;4.948;2023-04-07T08:34:27;14.23;;;11.33;;
11135;SDS011;5622;50.840;4.948;2023-04-07T08:36:54;17.53;;;13.03;;
11135;SDS011;5622;50.840;4.948;2023-04-07T08:39:23;14.27;;;10.53;;
11135;SDS011;5622;50.840;4.948;2023-04-07T08:41:50;14.00;;;11.10;;
11135;SDS011;5622;50.840;4.948;2023-04-07T08:44:20;12.33;;;9.90;;
11135;SDS011;5622;50.840;4.948;2023-04-07T08:46:48;11.63;;;9.07;;
11135;SDS011;5622;50.840;4.948;2023-04-07T08:49:20;16.53;;;10.00;;
11135;SDS011;5622;50.840;4.948;2023-04-07T08:51:49;19.17;;;10.33;;
11135;SDS011;5622;50.840;4.948;2023-04-07T08:54:20;17.80;;;11.97;;
11135;SDS011;5622;50.840;4.948;2023-04-07T08:56:49;12.17;;;9.10;;
11135;SDS011;5622;50.840;4.948;2023-04-07T08:59:17;16.40;;;12.23;;
11135;SDS011;5622;50.840;4.948;2023-04-07T09:01:49;16.50;;;13.07;;
11135;SDS011;5622;50.840;4.948;2023-04-07T09:04:17;18.87;;;15.27;;
11135;SDS011;5622;50.840;4.948;2023-04-07T09:06:44;23.03;;;15.67;;
11135;SDS011;5622;50.840;4.948;2023-04-07T09:09:11;21.33;;;16.80;;
11135;SDS011;5622;50.840;4.948;2023-04-07T09:11:47;24.83;;;20.33;;
11135;SDS011;5622;50.840;4.948;2023-04-07T09:14:16;21.50;;;15.63;;
11135;SDS011;5622;50.840;4.948;2023-04-07T09:16:45;20.43;;;15.00;;
11135;SDS011;5622;50.840;4.948;2023-04-07T09:19:12;22.43;;;16.97;;
11135;SDS011;5622;50.840;4.948;2023-04-07T09:21:46;23.23;;;15.67;;
11135;SDS011;5622;50.840;4.948;2023-04-07T09:24:19;20.23;;;14.30;;
11135;SDS011;5622;50.840;4.948;2023-04-07T09:26:49;18.77;;;14.03;;
11135;SDS011;5622;50.840;4.948;2023-04-07T09:29:19;18.27;;;14.60;;
11135;SDS011;5622;50.840;4.948;2023-04-07T09:31:48;15.83;;;13.07;;
11135;SDS011;5622;50.840;4.948;2023-04-07T09:34:23;36.53;;;18.67;;
11135;SDS011;5622;50.840;4.948;2023-04-07T09:36:52;18.03;;;10.70;;
11135;SDS011;5622;50.840;4.948;2023-04-07T09:39:19;19.33;;;12.90;;
11135;SDS011;5622;50.840;4.948;2023-04-07T09:41:46;21.20;;;17.10;;
11135;SDS011;5622;50.840;4.948;2023-04-07T09:44:18;26.37;;;17.33;;
11135;SDS011;5622;50.840;4.948;2023-04-07T09:46:49;20.43;;;15.83;;
11135;SDS011;5622;50.840;4.948;2023-04-07T09:49:17;22.90;;;16.23;;
11135;SDS011;5622;50.840;4.948;2023-04-07T09:51:52;26.23;;;17.23;;
11135;SDS011;5622;50.840;4.948;2023-04-07T09:54:30;26.27;;;17.57;;
11135;SDS011;5622;50.840;4.948;2023-04-07T09:57:00;20.57;;;17.27;;
11135;SDS011;5622;50.840;4.948;2023-04-07T09:59:29;22.53;;;16.07;;
11135;SDS011;5622;50.840;4.948;2023-04-07T10:02:11;21.93;;;16.97;;
11135;SDS011;5622;50.840;4.948;2023-04-07T10:04:38;26.87;;;18.70;;
11135;SDS011;5622;50.840;4.948;2023-04-07T10:07:06;21.63;;;17.60;;
11135;SDS011;5622;50.840;4.948;2023-04-07T10:09:33;23.33;;;18.27;;
11135;SDS011;5622;50.840;4.948;2023-04-07T10:12:05;22.37;;;16.47;;
11135;SDS011;5622;50.840;4.948;2023-04-07T10:14:34;20.97;;;15.13;;
11135;SDS011;5622;50.840;4.948;2023-04-07T10:17:02;20.87;;;13.77;;
11135;SDS011;5622;50.840;4.948;2023-04-07T10:19:30;18.03;;;13.27;;
11135;SDS011;5622;50.840;4.948;2023-04-07T10:21:58;23.33;;;16.87;;
11135;SDS011;5622;50.840;4.948;2023-04-07T10:24:31;15.83;;;12.00;;
11135;SDS011;5622;50.840;4.948;2023-04-07T10:27:11;17.80;;;12.67;;
11135;SDS011;5622;50.840;4.948;2023-04-07T10:29:43;17.30;;;11.97;;
11135;SDS011;5622;50.840;4.948;2023-04-07T10:32:14;14.27;;;11.27;;
11135;SDS011;5622;50.840;4.948;2023-04-07T10:34:57;17.03;;;11.63;;
11135;SDS011;5622;50.840;4.948;2023-04-07T10:37:25;12.60;;;9.83;;
11135;SDS011;5622;50.840;4.948;2023-04-07T10:42:54;11.13;;;8.23;;
11135;SDS011;5622;50.840;4.948;2023-04-07T10:48:25;8.60;;;6.80;;
11135;SDS011;5622;50.840;4.948;2023-04-07T10:51:13;10.87;;;6.23;;
11135;SDS011;5622;50.840;4.948;2023-04-07T10:57:12;8.57;;;5.03;;
11135;SDS011;5622;50.840;4.948;2023-04-07T11:00:13;5.83;;;4.77;;
11135;SDS011;5622;50.840;4.948;2023-04-07T11:02:42;5.20;;;4.70;;
11135;SDS011;5622;50.840;4.948;2023-04-07T11:05:18;6.10;;;5.13;;
11135;SDS011;5622;50.840;4.948;2023-04-07T11:07:48;7.13;;;5.10;;
11135;SDS011;5622;50.840;4.948;2023-04-07T11:10:23;8.00;;;5.27;;
11135;SDS011;5622;50.840;4.948;2023-04-07T11:12:57;6.50;;;5.50;;
11135;SDS011;5622;50.840;4.948;2023-04-07T11:15:27;11.67;;;5.17;;
11135;SDS011;5622;50.840;4.948;2023-04-07T11:20:41;7.40;;;5.23;;
11135;SDS011;5622;50.840;4.948;2023-04-07T11:23:10;6.97;;;5.57;;
11135;SDS011;5622;50.840;4.948;2023-04-07T11:25:37;6.27;;;5.27;;
11135;SDS011;5622;50.840;4.948;2023-04-07T11:28:08;9.00;;;5.53;;
11135;SDS011;5622;50.840;4.948;2023-04-07T11:30:38;5.77;;;5.13;;
11135;SDS011;5622;50.840;4.948;2023-04-07T11:33:13;8.73;;;5.17;;
11135;SDS011;5622;50.840;4.948;2023-04-07T11:35:45;8.37;;;4.70;;
11135;SDS011;5622;50.840;4.948;2023-04-07T11:38:14;7.83;;;4.60;;
11135;SDS011;5622;50.840;4.948;2023-04-07T11:40:41;39.20;;;19.60;;
11135;SDS011;5622;50.840;4.948;2023-04-07T11:43:15;26.10;;;12.87;;
11135;SDS011;5622;50.840;4.948;2023-04-07T11:48:31;7.77;;;6.00;;
11135;SDS011;5622;50.840;4.948;2023-04-07T11:50:59;9.60;;;5.47;;
11135;SDS011;5622;50.840;4.948;2023-04-07T11:53:27;8.93;;;6.10;;
11135;SDS011;5622;50.840;4.948;2023-04-07T11:55:59;10.97;;;5.53;;
11135;SDS011;5622;50.840;4.948;2023-04-07T11:58:31;8.93;;;5.30;;
11135;SDS011;5622;50.840;4.948;2023-04-07T12:00:59;10.23;;;5.30;;
11135;SDS011;5622;50.840;4.948;2023-04-07T12:03:32;7.70;;;5.40;;
11135;SDS011;5622;50.840;4.948;2023-04-07T12:06:00;7.60;;;5.00;;
11135;SDS011;5622;50.840;4.948;2023-04-07T12:08:40;11.40;;;4.97;;
11135;SDS011;5622;50.840;4.948;2023-04-07T12:11:09;10.37;;;4.63;;
11135;SDS011;5622;50.840;4.948;2023-04-07T12:13:36;8.03;;;4.43;;
11135;SDS011;5622;50.840;4.948;2023-04-07T12:16:03;10.73;;;4.50;;
11135;SDS011;5622;50.840;4.948;2023-04-07T12:18:32;12.67;;;4.87;;
11135;SDS011;5622;50.840;4.948;2023-04-07T12:20:59;11.57;;;4.90;;
11135;SDS011;5622;50.840;4.948;2023-04-07T12:23:26;14.37;;;4.87;;
11135;SDS011;5622;50.840;4.948;2023-04-07T12:25:53;10.77;;;4.23;;
11135;SDS011;5622;50.840;4.948;2023-04-07T12:28:20;6.57;;;4.20;;
11135;SDS011;5622;50.840;4.948;2023-04-07T12:30:48;7.93;;;3.93;;
11135;SDS011;5622;50.840;4.948;2023-04-07T12:33:15;6.37;;;3.63;;
11135;SDS011;5622;50.840;4.948;2023-04-07T12:35:43;7.93;;;4.10;;
11135;SDS011;5622;50.840;4.948;2023-04-07T12:38:10;10.23;;;3.80;;
11135;SDS011;5622;50.840;4.948;2023-04-07T12:40:38;7.47;;;4.03;;
11135;SDS011;5622;50.840;4.948;2023-04-07T12:43:05;9.03;;;4.10;;
11135;SDS011;5622;50.840;4.948;2023-04-07T12:45:32;7.60;;;4.13;;
11135;SDS011;5622;50.840;4.948;2023-04-07T12:47:59;8.77;;;4.03;;
11135;SDS011;5622;50.840;4.948;2023-04-07T12:50:26;11.93;;;4.20;;
11135;SDS011;5622;50.840;4.948;2023-04-07T12:52:56;9.97;;;4.07;;
11135;SDS011;5622;50.840;4.948;2023-04-07T12:55:27;7.27;;;4.10;;
11135;SDS011;5622;50.840;4.948;2023-04-07T12:57:54;9.00;;;4.50;;
11135;SDS011;5622;50.840;4.948;2023-04-07T13:00:21;8.40;;;4.10;;
11135;SDS011;5622;50.840;4.948;2023-04-07T13:02:49;10.60;;;3.53;;
11135;SDS011;5622;50.840;4.948;2023-04-07T13:05:16;19.10;;;9.77;;
11135;SDS011;5622;50.840;4.948;2023-04-07T13:07:43;25.83;;;13.60;;
11135;SDS011;5622;50.840;4.948;2023-04-07T13:10:12;77.63;;;43.87;;
11135;SDS011;5622;50.840;4.948;2023-04-07T13:12:40;27.23;;;15.23;;
11135;SDS011;5622;50.840;4.948;2023-04-07T13:15:07;8.63;;;4.40;;
11135;SDS011;5622;50.840;4.948;2023-04-07T13:17:34;7.37;;;3.30;;
11135;SDS011;5622;50.840;4.948;2023-04-07T13:20:03;6.57;;;3.70;;
11135;SDS011;5622;50.840;4.948;2023-04-07T13:22:30;7.10;;;3.13;;
11135;SDS011;5622;50.840;4.948;2023-04-07T13:24:58;7.50;;;4.10;;
11135;SDS011;5622;50.840;4.948;2023-04-07T13:27:26;6.17;;;3.80;;
11135;SDS011;5622;50.840;4.948;2023-04-07T13:29:53;11.43;;;4.50;;
11135;SDS011;5622;50.840;4.948;2023-04-07T13:32:20;8.10;;;4.17;;
11135;SDS011;5622;50.840;4.948;2023-04-07T13:34:48;7.17;;;3.90;;
11135;SDS011;5622;50.840;4.948;2023-04-07T13:37:16;9.50;;;3.90;;
11135;SDS011;5622;50.840;4.948;2023-04-07T13:39:44;6.93;;;3.50;;
11135;SDS011;5622;50.840;4.948;2023-04-07T13:42:12;9.20;;;3.90;;
11135;SDS011;5622;50.840;4.948;2023-04-07T13:44:42;5.97;;;3.57;;
11135;SDS011;5622;50.840;4.948;2023-04-07T13:47:11;5.17;;;3.50;;
11135;SDS011;5622;50.840;4.948;2023-04-07T13:49:43;6.40;;;3.50;;
11135;SDS011;5622;50.840;4.948;2023-04-07T13:52:11;7.10;;;3.53;;
11135;SDS011;5622;50.840;4.948;2023-04-07T13:54:38;10.87;;;4.00;;
11135;SDS011;5622;50.840;4.948;2023-04-07T13:57:05;6.63;;;3.60;;
11135;SDS011;5622;50.840;4.948;2023-04-07T13:59:33;10.00;;;3.50;;
11135;SDS011;5622;50.840;4.948;2023-04-07T14:02:01;7.50;;;2.90;;
11135;SDS011;5622;50.840;4.948;2023-04-07T14:04:29;5.93;;;2.70;;
11135;SDS011;5622;50.840;4.948;2023-04-07T14:06:56;4.80;;;2.50;;
11135;SDS011;5622;50.840;4.948;2023-04-07T14:09:23;4.20;;;2.57;;
11135;SDS011;5622;50.840;4.948;2023-04-07T14:11:50;4.80;;;2.50;;
11135;SDS011;5622;50.840;4.948;2023-04-07T14:14:17;4.43;;;2.30;;
11135;SDS011;5622;50.840;4.948;2023-04-07T14:16:44;3.90;;;2.73;;
11135;SDS011;5622;50.840;4.948;2023-04-07T14:19:13;6.77;;;2.80;;
11135;SDS011;5622;50.840;4.948;2023-04-07T14:21:40;3.93;;;2.47;;
11135;SDS011;5622;50.840;4.948;2023-04-07T14:24:07;7.53;;;3.30;;
11135;SDS011;5622;50.840;4.948;2023-04-07T14:26:34;6.80;;;2.73;;
11135;SDS011;5622;50.840;4.948;2023-04-07T14:29:01;4.43;;;2.70;;
11135;SDS011;5622;50.840;4.948;2023-04-07T14:31:29;4.87;;;3.10;;
11135;SDS011;5622;50.840;4.948;2023-04-07T14:33:59;4.23;;;2.47;;
11135;SDS011;5622;50.840;4.948;2023-04-07T14:36:28;6.57;;;2.40;;
11135;SDS011;5622;50.840;4.948;2023-04-07T14:38:56;8.03;;;2.50;;
11135;SDS011;5622;50.840;4.948;2023-04-07T14:41:23;5.43;;;2.90;;
11135;SDS011;5622;50.840;4.948;2023-04-07T14:43:50;6.30;;;2.67;;
11135;SDS011;5622;50.840;4.948;2023-04-07T14:46:20;4.60;;;2.67;;
11135;SDS011;5622;50.840;4.948;2023-04-07T14:48:47;4.50;;;2.93;;
11135;SDS011;5622;50.840;4.948;2023-04-07T14:51:14;5.83;;;2.73;;
11135;SDS011;5622;50.840;4.948;2023-04-07T14:53:43;4.83;;;2.93;;
11135;SDS011;5622;50.840;4.948;2023-04-07T14:56:11;4.27;;;2.70;;
11135;SDS011;5622;50.840;4.948;2023-04-07T14:58:38;4.23;;;2.60;;
11135;SDS011;5622;50.840;4.948;2023-04-07T15:01:05;8.33;;;2.93;;
11135;SDS011;5622;50.840;4.948;2023-04-07T15:03:33;6.67;;;2.93;;
11135;SDS011;5622;50.840;4.948;2023-04-07T15:06:00;4.90;;;2.90;;